Zemst, Belgium
Current Conditions -  °F | °C
As of 11:20 AM on Tuesday 27 Jan 2015 (Local Time) from EBBR Reporting Station
Few Clouds Few Clouds  
Wind Chill: 33°   Ceiling: Unl
Heat Index: 39°   Visibility: 6mi
Dew Point: 36°   Wind: 9mph
Humidity: 87%   Direction: 270°W
Pressure: 30.27"   Gusts: NA
Location:  50.98°N, 4.46°E
Report Text: EBBR 271020Z 27008KT 9999 FEW012 04/02 Q1025 NOSIG
Loading
Personal Weather Stations






























Interactive Weather Map New forecast layout! Learn more

10-Day Weather Forecast

Advertisements
Track Severe Weather on mobile